Time;durP1;ratioP1;P1;durP2;ratioP2;P2;SDS_P1;SDS_P2;PMS_P1;PMS_P2;Temp;Humidity;BMP_temperature;BMP_pressure;BME280_temperature;BME280_humidity;BME280_pressure;Samples;Min_cycle;Max_cycle;Signal;HPM_P1;HPM_P2
2021/07/24 00:01:41;;;;;;;;;;;;;;;;;;5111411;28;19944;-69
2021/07/24 00:04:07;;;;;;;;;;;;;;;;;;5110443;28;19908;-69
2021/07/24 00:06:33;;;;;;;;;;;;;;;;;;5110504;28;19908;-70
2021/07/24 00:09:04;;;;;;;;;;;;;;;;;;5111522;28;20367;-70
2021/07/24 00:11:30;;;;;;;;;;;;;;;;;;5112066;28;19915;-70
2021/07/24 00:13:56;;;;;;;;;;;;;;;;;;5111515;28;20278;-70
2021/07/24 00:16:22;;;;;;;;;;;;;;;;;;5111021;28;20003;-69
2021/07/24 00:18:48;;;;;;;;;;;;;;;;;;5111409;28;19947;-69
2021/07/24 00:21:14;;;;;;;;;;;;;;;;;;5111522;28;19989;-69
2021/07/24 00:23:40;;;;;;;;;;;;;;;;;;5109712;28;19908;-70
2021/07/24 00:26:06;;;;;;;;;;;;;;;;;;5111329;28;19916;-69
2021/07/24 00:28:32;;;;;;;;;;;;;;;;;;5109971;28;19908;-70
2021/07/24 00:30:58;;;;;;;;;;;;;;;;;;5110742;28;19961;-70
2021/07/24 00:33:24;;;;;;;;;;;;;;;;;;5111137;28;19908;-70
2021/07/24 00:35:50;;;;;;;;;;;;;;;;;;5111469;28;19916;-70
2021/07/24 00:38:16;;;;;;;;;;;;;;;;;;5110704;28;19908;-70
2021/07/24 00:40:42;;;;;;;;;;;;;;;;;;5111385;28;19908;-70
2021/07/24 00:43:08;;;;;;;;;;;;;;;;;;5110573;28;19908;-70
2021/07/24 00:45:34;;;;;;;;;;;;;;;;;;5110931;28;19915;-70
2021/07/24 00:48:00;;;;;;;;;;;;;;;;;;5111292;28;19940;-70
2021/07/24 00:50:26;;;;;;;;;;;;;;;;;;5109246;28;20353;-70
2021/07/24 00:52:59;;;;;;;;;;;;;;;;;;5110838;28;19994;-70
2021/07/24 00:55:25;;;;;;;;;;;;;;;;;;5110588;28;19920;-70
2021/07/24 00:57:51;;;;;;;;;;;;;;;;;;5110271;28;19908;-70
2021/07/24 01:00:17;;;;;;;;;;;;;;;;;;5109341;28;19908;-70
2021/07/24 01:02:43;;;;;;;;;;;;;;;;;;5110620;28;19915;-70
2021/07/24 01:05:09;;;;;;;;;;;;;;;;;;5110386;28;19912;-70
2021/07/24 01:07:35;;;;;;;;;;;;;;;;;;5100113;28;19908;-70
2021/07/24 01:10:01;;;;;;;;;;;;;;;;;;5096891;28;19915;-70
2021/07/24 01:12:27;;;;;;;;;;;;;;;;;;5096481;28;19909;-70
2021/07/24 01:14:53;;;;;;;;;;;;;;;;;;5096769;28;20370;-70
2021/07/24 01:17:19;;;;;;;;;;;;;;;;;;5095489;28;19952;-70
2021/07/24 01:19:46;;;;;;;;;;;;;;;;;;5096571;28;19911;-70
2021/07/24 01:23:00;;;;;;;;;;;;;;;;;;5091810;28;19916;-69
2021/07/24 01:25:26;;;;;;;;;;;;;;;;;;5089810;28;19916;-69
2021/07/24 01:27:52;;;;;;;;;;;;;;;;;;5091328;28;19954;-68
2021/07/24 01:30:18;;;;;;;;;;;;;;;;;;5091680;28;19951;-69
2021/07/24 01:32:44;;;;;;;;;;;;;;;;;;5090952;28;20348;-69
2021/07/24 01:35:09;;;;;;;;;;;;;;;;;;5091264;28;19912;-69
2021/07/24 01:37:35;;;;;;;;;;;;;;;;;;5091183;28;19912;-69
2021/07/24 01:40:01;;;;;;;;;;;;;;;;;;5090943;28;19915;-69
2021/07/24 01:42:27;;;;;;;;;;;;;;;;;;5091364;28;20416;-69
2021/07/24 01:44:53;;;;;;;;;;;;;;;;;;5090014;28;19909;-69
2021/07/24 01:47:19;;;;;;;;;;;;;;;;;;5090630;28;19919;-70
2021/07/24 01:52:49;;;;;;;;;;;;;;;;;;5090975;28;19915;-70
2021/07/24 01:55:44;;;;;;;;;;;;;;;;;;5091958;28;19923;-69
2021/07/24 01:58:10;;;;;;;;;;;;;;;;;;5090169;28;19999;-69
2021/07/24 02:00:36;;;;;;;;;;;;;;;;;;5090952;28;20007;-69
2021/07/24 02:03:02;;;;;;;;;;;;;;;;;;5091366;28;19912;-69
2021/07/24 02:05:28;;;;;;;;;;;;;;;;;;5091277;28;20395;-70
2021/07/24 02:07:54;;;;;;;;;;;;;;;;;;5091108;28;19912;-69
2021/07/24 02:10:20;;;;;;;;;;;;;;;;;;5091200;28;19954;-69
2021/07/24 02:12:46;;;;;;;;;;;;;;;;;;5091063;28;19908;-69
2021/07/24 02:15:12;;;;;;;;;;;;;;;;;;5091223;28;19917;-69
2021/07/24 02:18:35;;;;;;;;;;;;;;;;;;5112180;27;19916;-69
2021/07/24 02:21:31;;;;;;;;;;;;;;;;;;5091580;27;19916;-69
2021/07/24 02:25:56;;;;;;;;;;;;;;;;;;5092290;28;19917;-69
2021/07/24 02:28:22;;;;;;;;;;;;;;;;;;5091476;28;20467;-69
2021/07/24 02:30:48;;;;;;;;;;;;;;;;;;5090964;28;19991;-69
2021/07/24 02:33:14;;;;;;;;;;;;;;;;;;5091371;28;19908;-68
2021/07/24 02:35:40;;;;;;;;;;;;;;;;;;5090963;28;19909;-69
2021/07/24 02:40:22;;;;;;;;;;;;;;;;;;5091608;27;19939;-69
2021/07/24 02:42:48;;;;;;;;;;;;;;;;;;5091106;28;19982;-69
2021/07/24 02:45:14;;;;;;;;;;;;;;;;;;5091734;28;19909;-69
2021/07/24 02:47:40;;;;;;;;;;;;;;;;;;5091845;28;19908;-69
2021/07/24 02:50:06;;;;;;;;;;;;;;;;;;5090912;28;19955;-69
2021/07/24 02:52:32;;;;;;;;;;;;;;;;;;5091233;28;19908;-69
2021/07/24 02:57:05;;;;;;;;;;;;;;;;;;5112119;27;19916;-70
2021/07/24 02:59:31;;;;;;;;;;;;;;;;;;5110576;28;20348;-70
2021/07/24 03:01:57;;;;;;;;;;;;;;;;;;5110483;28;19915;-70
2021/07/24 03:07:49;;;;;;;;;;;;;;;;;;5091483;27;19922;-69
2021/07/24 03:10:42;;;;;;;;;;;;;;;;;;5091196;27;20398;-69
2021/07/24 03:13:08;;;;;;;;;;;;;;;;;;5090166;28;19999;-69
2021/07/24 03:15:34;;;;;;;;;;;;;;;;;;5091403;28;19908;-69
2021/07/24 03:18:00;;;;;;;;;;;;;;;;;;5090981;28;19962;-69
2021/07/24 03:21:24;;;;;;;;;;;;;;;;;;5092000;27;19916;-69
2021/07/24 03:25:12;;;;;;;;;;;;;;;;;;5091727;27;19923;-69
2021/07/24 03:27:38;;;;;;;;;;;;;;;;;;5091394;28;19999;-69
2021/07/24 03:30:05;;;;;;;;;;;;;;;;;;5091350;28;19936;-69
2021/07/24 03:32:30;;;;;;;;;;;;;;;;;;5089717;28;19908;-69
2021/07/24 03:35:20;;;;;;;;;;;;;;;;;;5091579;27;19917;-69
2021/07/24 03:38:37;;;;;;;;;;;;;;;;;;5091495;27;19938;-69
2021/07/24 03:41:03;;;;;;;;;;;;;;;;;;5091081;28;19979;-69
2021/07/24 03:43:29;;;;;;;;;;;;;;;;;;5091404;28;19909;-69
2021/07/24 03:45:55;;;;;;;;;;;;;;;;;;5090980;28;19962;-69
2021/07/24 03:48:21;;;;;;;;;;;;;;;;;;5090040;28;19912;-69
2021/07/24 03:51:34;;;;;;;;;;;;;;;;;;5091689;27;19916;-70
2021/07/24 03:54:00;;;;;;;;;;;;;;;;;;5091123;28;20280;-70
2021/07/24 03:56:26;;;;;;;;;;;;;;;;;;5091919;28;19908;-69
2021/07/24 04:00:18;;;;;;;;;;;;;;;;;;5091607;27;20303;-69
2021/07/24 04:02:44;;;;;;;;;;;;;;;;;;5090188;28;20304;-69
2021/07/24 04:05:10;;;;;;;;;;;;;;;;;;5091373;28;19935;-69
2021/07/24 04:07:36;;;;;;;;;;;;;;;;;;5090896;28;20011;-70
2021/07/24 04:11:23;;;;;;;;;;;;;;;;;;5092273;27;19919;-71
2021/07/24 04:15:49;;;;;;;;;;;;;;;;;;5091306;27;19939;-69
2021/07/24 04:18:15;;;;;;;;;;;;;;;;;;5091452;28;20376;-69
2021/07/24 04:20:41;;;;;;;;;;;;;;;;;;5091426;28;20426;-69
2021/07/24 04:23:07;;;;;;;;;;;;;;;;;;5089668;28;20314;-69
2021/07/24 04:25:33;;;;;;;;;;;;;;;;;;5090003;28;19915;-69
2021/07/24 04:27:59;;;;;;;;;;;;;;;;;;5089975;28;19965;-69
2021/07/24 04:30:25;;;;;;;;;;;;;;;;;;5090814;28;20261;-69
2021/07/24 04:32:51;;;;;;;;;;;;;;;;;;5091706;28;19962;-69
2021/07/24 04:35:17;;;;;;;;;;;;;;;;;;5090702;28;19920;-69
2021/07/24 04:40:08;;;;;;;;;;;;;;;;;;5091848;28;19923;-69
2021/07/24 04:42:34;;;;;;;;;;;;;;;;;;5091021;28;19966;-69
2021/07/24 04:45:00;;;;;;;;;;;;;;;;;;5090084;28;19909;-69
2021/07/24 04:47:26;;;;;;;;;;;;;;;;;;5091392;28;19948;-69
2021/07/24 04:49:53;;;;;;;;;;;;;;;;;;5090904;28;19908;-70
2021/07/24 04:52:19;;;;;;;;;;;;;;;;;;5091220;28;19934;-70
2021/07/24 04:54:45;;;;;;;;;;;;;;;;;;5091182;28;19908;-70
2021/07/24 04:57:11;;;;;;;;;;;;;;;;;;5090756;28;19923;-70
2021/07/24 04:59:37;;;;;;;;;;;;;;;;;;5089867;28;20402;-71
2021/07/24 05:03:38;;;;;;;;;;;;;;;;;;5153025;27;19994;-71
2021/07/24 05:06:04;;;;;;;;;;;;;;;;;;5153014;27;19977;-70
2021/07/24 05:08:30;;;;;;;;;;;;;;;;;;5152991;27;19946;-70
2021/07/24 05:10:56;;;;;;;;;;;;;;;;;;5152513;27;19918;-70
2021/07/24 05:13:22;;;;;;;;;;;;;;;;;;5152842;27;19908;-70
2021/07/24 05:15:48;;;;;;;;;;;;;;;;;;5153159;27;19990;-70
2021/07/24 05:18:14;;;;;;;;;;;;;;;;;;5152768;27;20390;-70
2021/07/24 05:20:40;;;;;;;;;;;;;;;;;;5153295;27;19907;-70
2021/07/24 05:23:45;;;;;;;;;;;;;;;;;;5112286;27;19916;-69
2021/07/24 05:26:11;;;;;;;;;;;;;;;;;;5111427;28;19965;-69
2021/07/24 05:28:37;;;;;;;;;;;;;;;;;;5110394;28;19908;-69
2021/07/24 05:31:03;;;;;;;;;;;;;;;;;;5111700;28;19954;-69
2021/07/24 05:33:29;;;;;;;;;;;;;;;;;;5111295;28;20372;-69
2021/07/24 05:35:55;;;;;;;;;;;;;;;;;;5111640;28;19919;-71
2021/07/24 05:38:21;;;;;;;;;;;;;;;;;;5111424;28;19958;-70
2021/07/24 05:40:47;;;;;;;;;;;;;;;;;;5112086;28;20310;-71
2021/07/24 05:43:13;;;;;;;;;;;;;;;;;;5110112;28;19916;-70
2021/07/24 05:45:39;;;;;;;;;;;;;;;;;;5111465;28;20045;-70
2021/07/24 05:48:05;;;;;;;;;;;;;;;;;;5111380;28;20295;-70
2021/07/24 05:50:31;;;;;;;;;;;;;;;;;;5111599;28;19908;-70
2021/07/24 05:52:57;;;;;;;;;;;;;;;;;;5110872;28;19914;-70
2021/07/24 05:55:23;;;;;;;;;;;;;;;;;;5110934;28;19910;-70
2021/07/24 05:57:49;;;;;;;;;;;;;;;;;;5111090;28;19961;-70
2021/07/24 06:00:15;;;;;;;;;;;;;;;;;;5109472;28;20307;-70
2021/07/24 06:02:41;;;;;;;;;;;;;;;;;;5111077;28;19922;-70
2021/07/24 06:05:07;;;;;;;;;;;;;;;;;;5111118;28;19995;-70
2021/07/24 06:07:33;;;;;;;;;;;;;;;;;;5110640;28;20352;-69
2021/07/24 06:09:59;;;;;;;;;;;;;;;;;;5110994;28;20368;-70
2021/07/24 06:12:25;;;;;;;;;;;;;;;;;;5110882;28;19919;-70
2021/07/24 06:14:51;;;;;;;;;;;;;;;;;;5110481;28;20358;-70
2021/07/24 06:17:17;;;;;;;;;;;;;;;;;;5110884;28;19908;-70
2021/07/24 06:19:43;;;;;;;;;;;;;;;;;;5110790;28;20318;-70
2021/07/24 06:22:09;;;;;;;;;;;;;;;;;;5108912;28;19927;-70
2021/07/24 06:24:35;;;;;;;;;;;;;;;;;;5109702;28;19912;-70
2021/07/24 06:27:01;;;;;;;;;;;;;;;;;;5110702;28;19915;-70
2021/07/24 06:30:35;;;;;;;;;;;;;;;;;;5092052;27;19923;-69
2021/07/24 06:33:01;;;;;;;;;;;;;;;;;;5091428;28;20007;-69
2021/07/24 06:35:27;;;;;;;;;;;;;;;;;;5089622;28;20437;-70
2021/07/24 06:37:53;;;;;;;;;;;;;;;;;;5091404;28;19916;-69
2021/07/24 06:40:19;;;;;;;;;;;;;;;;;;5091519;28;19962;-69
2021/07/24 06:42:45;;;;;;;;;;;;;;;;;;5090925;28;19912;-69
2021/07/24 06:45:11;;;;;;;;;;;;;;;;;;5091168;28;20007;-69
2021/07/24 06:47:37;;;;;;;;;;;;;;;;;;5091179;28;19970;-70
2021/07/24 06:50:03;;;;;;;;;;;;;;;;;;5090701;28;19916;-70
2021/07/24 06:52:29;;;;;;;;;;;;;;;;;;5091316;28;19937;-70
2021/07/24 06:54:55;;;;;;;;;;;;;;;;;;5090980;28;19935;-70
2021/07/24 06:57:20;;;;;;;;;;;;;;;;;;5090620;28;19913;-70
2021/07/24 06:59:46;;;;;;;;;;;;;;;;;;5090973;28;20003;-70
2021/07/24 07:02:12;;;;;;;;;;;;;;;;;;5090905;28;19909;-70
2021/07/24 07:04:38;;;;;;;;;;;;;;;;;;5090483;28;19912;-70
2021/07/24 07:07:04;;;;;;;;;;;;;;;;;;5089562;28;20440;-69
2021/07/24 07:09:30;;;;;;;;;;;;;;;;;;5090679;28;19916;-70
2021/07/24 07:11:57;;;;;;;;;;;;;;;;;;5090306;28;19934;-70
2021/07/24 07:15:08;;;;;;;;;;;;;;;;;;5112698;27;20352;-69
2021/07/24 07:17:34;;;;;;;;;;;;;;;;;;5111163;28;19912;-70
2021/07/24 07:20:00;;;;;;;;;;;;;;;;;;5111628;28;20248;-71
2021/07/24 07:22:26;;;;;;;;;;;;;;;;;;5110480;28;19953;-70
2021/07/24 07:24:52;;;;;;;;;;;;;;;;;;5111220;28;20003;-70
2021/07/24 07:27:18;;;;;;;;;;;;;;;;;;5110359;28;19998;-70
2021/07/24 07:30:14;;;;;;;;;;;;;;;;;;5092324;27;19917;-69
2021/07/24 07:32:40;;;;;;;;;;;;;;;;;;5091043;28;19916;-70
2021/07/24 07:35:06;;;;;;;;;;;;;;;;;;5091389;28;19916;-69
2021/07/24 07:37:32;;;;;;;;;;;;;;;;;;5091370;28;19909;-69
2021/07/24 07:39:58;;;;;;;;;;;;;;;;;;5090867;28;20007;-69
2021/07/24 07:42:24;;;;;;;;;;;;;;;;;;5091225;28;19912;-69
2021/07/24 07:44:50;;;;;;;;;;;;;;;;;;5091236;28;20295;-69
2021/07/24 07:47:16;;;;;;;;;;;;;;;;;;5089524;28;19912;-70
2021/07/24 07:50:10;;;;;;;;;;;;;;;;;;5091602;27;19923;-70
2021/07/24 07:52:36;;;;;;;;;;;;;;;;;;5091028;28;19912;-71
2021/07/24 07:55:02;;;;;;;;;;;;;;;;;;5091549;28;19916;-71
2021/07/24 07:57:29;;;;;;;;;;;;;;;;;;5091367;28;19909;-70
2021/07/24 07:59:55;;;;;;;;;;;;;;;;;;5090895;28;19915;-70
2021/07/24 08:02:21;;;;;;;;;;;;;;;;;;5089990;28;19908;-70
2021/07/24 08:04:50;;;;;;;;;;;;;;;;;;5091230;28;19909;-70
2021/07/24 08:08:54;;;;;;;;;;;;;;;;;;5092332;28;19922;-70
2021/07/24 08:11:20;;;;;;;;;;;;;;;;;;5091409;28;19958;-72
2021/07/24 08:13:45;;;;;;;;;;;;;;;;;;5089699;28;19950;-70
2021/07/24 08:16:11;;;;;;;;;;;;;;;;;;5091320;28;20301;-70
2021/07/24 08:18:37;;;;;;;;;;;;;;;;;;5090001;28;19908;-70
2021/07/24 08:21:04;;;;;;;;;;;;;;;;;;5090953;28;19920;-69
2021/07/24 08:23:30;;;;;;;;;;;;;;;;;;5091246;28;19908;-69
2021/07/24 08:25:56;;;;;;;;;;;;;;;;;;5091135;28;20037;-70
2021/07/24 08:28:22;;;;;;;;;;;;;;;;;;5090789;28;19921;-71
2021/07/24 08:30:48;;;;;;;;;;;;;;;;;;5091121;28;19916;-70
2021/07/24 08:33:14;;;;;;;;;;;;;;;;;;5090958;28;19932;-70
2021/07/24 08:35:40;;;;;;;;;;;;;;;;;;5090578;28;19952;-70
2021/07/24 08:38:06;;;;;;;;;;;;;;;;;;5091064;28;19908;-70
2021/07/24 08:40:32;;;;;;;;;;;;;;;;;;5091121;28;19916;-70
2021/07/24 08:42:58;;;;;;;;;;;;;;;;;;5090431;28;19931;-71
2021/07/24 08:45:24;;;;;;;;;;;;;;;;;;5089522;28;19920;-70
2021/07/24 08:47:50;;;;;;;;;;;;;;;;;;5090699;28;20022;-71
2021/07/24 08:50:17;;;;;;;;;;;;;;;;;;5090305;28;19947;-71
2021/07/24 08:52:43;;;;;;;;;;;;;;;;;;5090462;28;19916;-70
2021/07/24 08:55:09;;;;;;;;;;;;;;;;;;5090654;28;19915;-70
2021/07/24 08:57:35;;;;;;;;;;;;;;;;;;5090201;28;20011;-70
2021/07/24 09:00:01;;;;;;;;;;;;;;;;;;5090544;28;19994;-70
2021/07/24 09:02:27;;;;;;;;;;;;;;;;;;5090025;28;19944;-71
2021/07/24 09:04:53;;;;;;;;;;;;;;;;;;5090386;28;19919;-69
2021/07/24 09:07:19;;;;;;;;;;;;;;;;;;5097761;28;19927;-69
2021/07/24 09:09:45;;;;;;;;;;;;;;;;;;5110853;28;20343;-71
2021/07/24 09:12:11;;;;;;;;;;;;;;;;;;5110659;28;19912;-70
2021/07/24 09:14:37;;;;;;;;;;;;;;;;;;5110571;28;20390;-70
2021/07/24 09:17:03;;;;;;;;;;;;;;;;;;5091895;28;19912;-70
2021/07/24 09:19:29;;;;;;;;;;;;;;;;;;5101084;28;19916;-71
2021/07/24 09:21:55;;;;;;;;;;;;;;;;;;5096869;28;19950;-70
2021/07/24 09:24:21;;;;;;;;;;;;;;;;;;5096598;28;20376;-70
2021/07/24 09:26:47;;;;;;;;;;;;;;;;;;5096662;28;19919;-70
2021/07/24 09:29:14;;;;;;;;;;;;;;;;;;5096886;28;20426;-70
2021/07/24 09:31:40;;;;;;;;;;;;;;;;;;5096571;28;19912;-71
2021/07/24 09:34:06;;;;;;;;;;;;;;;;;;5096632;28;19915;-70
2021/07/24 09:36:32;;;;;;;;;;;;;;;;;;5096550;28;19908;-70
2021/07/24 09:38:58;;;;;;;;;;;;;;;;;;5096131;28;20356;-70
2021/07/24 09:41:24;;;;;;;;;;;;;;;;;;5096003;28;20007;-70
2021/07/24 09:43:50;;;;;;;;;;;;;;;;;;5096363;28;20338;-70
2021/07/24 09:46:16;;;;;;;;;;;;;;;;;;5095960;28;19915;-70
2021/07/24 09:48:42;;;;;;;;;;;;;;;;;;5096894;28;20015;-70
2021/07/24 09:51:08;;;;;;;;;;;;;;;;;;5078244;28;20006;-70
2021/07/24 09:53:34;;;;;;;;;;;;;;;;;;5095975;28;19957;-70
2021/07/24 09:56:00;;;;;;;;;;;;;;;;;;5096233;28;19915;-70
2021/07/24 09:58:26;;;;;;;;;;;;;;;;;;5096546;28;20261;-70
2021/07/24 10:00:52;;;;;;;;;;;;;;;;;;5095813;28;19946;-70
2021/07/24 10:03:18;;;;;;;;;;;;;;;;;;5078116;28;20382;-70
2021/07/24 10:05:44;;;;;;;;;;;;;;;;;;5095796;28;19908;-72
2021/07/24 10:08:10;;;;;;;;;;;;;;;;;;5096942;28;19919;-71
2021/07/24 10:10:36;;;;;;;;;;;;;;;;;;5096122;28;19908;-71
2021/07/24 10:13:02;;;;;;;;;;;;;;;;;;5095705;28;19915;-70
2021/07/24 10:15:28;;;;;;;;;;;;;;;;;;5077773;28;20002;-71
2021/07/24 10:17:54;;;;;;;;;;;;;;;;;;5100676;28;19974;-71
2021/07/24 10:20:20;;;;;;;;;;;;;;;;;;5105671;28;19912;-72
2021/07/24 10:22:46;;;;;;;;;;;;;;;;;;5104964;28;19908;-71
2021/07/24 10:25:12;;;;;;;;;;;;;;;;;;5105890;28;19914;-69
2021/07/24 10:27:38;;;;;;;;;;;;;;;;;;5107443;28;20357;-70
2021/07/24 10:30:05;;;;;;;;;;;;;;;;;;5105902;28;19930;-69
2021/07/24 10:32:31;;;;;;;;;;;;;;;;;;5105510;28;19969;-71
2021/07/24 10:34:57;;;;;;;;;;;;;;;;;;5106717;28;19908;-70
2021/07/24 10:37:23;;;;;;;;;;;;;;;;;;5088664;28;19915;-69
2021/07/24 10:39:48;;;;;;;;;;;;;;;;;;5088260;28;20372;-69
2021/07/24 10:42:14;;;;;;;;;;;;;;;;;;5106947;28;19915;-70
2021/07/24 10:44:40;;;;;;;;;;;;;;;;;;5107060;28;19912;-69
2021/07/24 10:47:06;;;;;;;;;;;;;;;;;;5106963;28;20268;-69
2021/07/24 10:49:32;;;;;;;;;;;;;;;;;;5105261;28;19915;-70
2021/07/24 10:51:58;;;;;;;;;;;;;;;;;;5103103;28;19908;-70
2021/07/24 10:54:24;;;;;;;;;;;;;;;;;;5097072;28;19954;-70
2021/07/24 10:56:50;;;;;;;;;;;;;;;;;;5095862;28;20270;-70
2021/07/24 10:59:16;;;;;;;;;;;;;;;;;;5095482;28;19908;-70
2021/07/24 11:01:42;;;;;;;;;;;;;;;;;;5095241;28;19908;-70
2021/07/24 11:04:08;;;;;;;;;;;;;;;;;;5094959;28;20371;-70
2021/07/24 11:06:34;;;;;;;;;;;;;;;;;;5095346;28;19915;-70
2021/07/24 11:09:01;;;;;;;;;;;;;;;;;;5095011;28;20003;-70
2021/07/24 11:11:27;;;;;;;;;;;;;;;;;;5095489;28;20288;-71
2021/07/24 11:13:53;;;;;;;;;;;;;;;;;;5095473;28;20031;-70
2021/07/24 11:16:19;;;;;;;;;;;;;;;;;;5094492;28;19908;-70
2021/07/24 11:18:45;;;;;;;;;;;;;;;;;;5076546;28;20046;-70
2021/07/24 11:21:11;;;;;;;;;;;;;;;;;;5094800;28;19908;-70
2021/07/24 11:23:37;;;;;;;;;;;;;;;;;;5094324;28;19908;-70
2021/07/24 11:26:03;;;;;;;;;;;;;;;;;;5094882;28;20002;-70
2021/07/24 11:28:29;;;;;;;;;;;;;;;;;;5094624;28;19916;-70
2021/07/24 11:30:55;;;;;;;;;;;;;;;;;;5094305;28;19915;-70
2021/07/24 11:33:21;;;;;;;;;;;;;;;;;;5094603;28;19908;-70
2021/07/24 11:35:47;;;;;;;;;;;;;;;;;;5094426;28;19907;-70
2021/07/24 11:38:20;;;;;;;7.47;3.80;;;;;;;;;;5093747;28;19908;-70
2021/07/24 11:40:56;;;;;;;6.65;3.55;;;;;;;;;;5094029;28;20032;-70
2021/07/24 11:43:25;;;;;;;6.45;3.45;;;;;;;;;;5093735;28;20024;-70
2021/07/24 11:45:58;;;;;;;6.50;3.90;;;;;;;;;;5093582;28;20052;-71
2021/07/24 11:48:24;;;;;;;5.90;3.80;;;;;;;;;;5093721;28;20040;-71
2021/07/24 11:50:59;;;;;;;5.13;3.30;;;;;;;;;;5093730;28;20020;-71
2021/07/24 11:53:25;;;;;;;6.32;3.65;;;;;;;;;;5093359;28;20020;-71
2021/07/24 11:55:51;;;;;;;7.38;3.72;;;;;;;;;;5093873;28;20024;-72
2021/07/24 11:58:18;;;;;;;6.30;3.92;;;;;;;;;;5093231;28;20028;-71
2021/07/24 12:00:46;;;;;;;10.18;3.88;;;;;;;;;;5093756;28;20472;-71
2021/07/24 12:03:28;;;;;;;5.93;3.85;;;;;;;;;;5093621;28;20031;-71
2021/07/24 12:05:55;;;;;;;;;;;;;;;;;;5093583;28;20020;-71
2021/07/24 12:08:23;;;;;;;6.03;3.58;;;;;;;;;;5093325;28;19959;-71
2021/07/24 12:10:49;;;;;;;6.38;3.85;;;;;;;;;;5093844;28;20043;-71
2021/07/24 12:13:21;;;;;;;5.63;3.28;;;;;;;;;;5075073;28;20024;-70
2021/07/24 12:15:53;;;;;;;9.23;3.92;;;;;;;;;;5094086;28;20024;-71
2021/07/24 12:18:19;;;;;;;5.70;3.53;;;;;;;;;;5093401;28;20051;-69
2021/07/24 12:20:46;;;;;;;6.03;3.72;;;;;;;;;;5092999;28;20028;-69
2021/07/24 12:23:25;;;;;;;7.47;4.20;;;;;;;;;;5093584;28;20024;-69
2021/07/24 12:26:10;;;;;;;6.32;3.90;;;;;;;;;;5093365;28;20027;-69
2021/07/24 12:28:36;;;;;;;4.95;3.45;;;;;;;;;;5092923;28;20111;-69
2021/07/24 12:31:18;;;;;;;6.22;3.42;;;;;;;;;;5075278;28;20028;-69
2021/07/24 12:33:45;;;;;;;5.25;3.40;;;;;;;;;;5092948;28;20483;-69
2021/07/24 12:36:12;;;;;;;5.63;3.50;;;;;;;;;;5093333;28;20044;-70
2021/07/24 12:38:38;;;;;;;6.20;3.67;;;;;;;;;;5075188;28;20101;-70
2021/07/24 12:41:06;;;;;;;5.20;3.47;;;;;;;;;;5092895;28;20426;-70
2021/07/24 12:43:32;;;;;;;6.97;4.38;;;;;;;;;;5093689;28;20016;-70
2021/07/24 12:46:13;;;;;;;7.05;4.18;;;;;;;;;;5093739;28;20484;-71
2021/07/24 12:48:41;;;;;;;8.02;4.22;;;;;;;;;;5092985;28;20032;-72
2021/07/24 12:51:08;;;;;;;8.45;4.88;;;;;;;;;;5093141;28;20031;-69
2021/07/24 12:53:34;;;;;;;7.57;4.03;;;;;;;;;;5093777;28;20556;-70
2021/07/24 12:56:00;;;;;;;6.53;4.00;;;;;;;;;;5096532;28;20156;-70
2021/07/24 12:58:26;;;;;;;5.32;3.45;;;;;;;;;;5078687;28;20489;-71
2021/07/24 13:00:52;;;;;;;5.82;3.85;;;;;;;;;;5096955;28;20448;-70
2021/07/24 13:03:18;;;;;;;6.80;4.00;;;;;;;;;;5096462;28;20024;-70
2021/07/24 13:05:45;;;;;;;6.05;4.15;;;;;;;;;;5096969;28;20048;-70
2021/07/24 13:08:12;;;;;;;6.47;3.80;;;;;;;;;;5096458;28;20056;-70
2021/07/24 13:10:39;;;;;;;4.85;3.08;;;;;;;;;;5078119;28;20524;-71
2021/07/24 13:13:05;;;;;;;7.20;4.22;;;;;;;;;;5096967;28;20023;-70
2021/07/24 13:15:31;;;;;;;8.60;4.30;;;;;;;;;;5096264;28;20020;-70
2021/07/24 13:17:57;;;;;;;8.10;3.85;;;;;;;;;;5096670;28;20464;-70
2021/07/24 13:20:23;;;;;;;7.13;3.63;;;;;;;;;;5096516;28;20024;-70
2021/07/24 13:22:49;;;;;;;6.30;3.80;;;;;;;;;;5096456;28;20036;-70
2021/07/24 13:30:40;;;;;;;6.70;4.03;;;;;;;;;;5072512;28;20035;-69
2021/07/24 13:33:07;;;;;;;7.65;3.72;;;;;;;;;;5096199;28;20024;-70
2021/07/24 13:35:34;;;;;;;7.90;4.30;;;;;;;;;;5096448;28;20059;-70
2021/07/24 13:38:01;;;;;;;6.60;4.28;;;;;;;;;;5095809;28;20028;-70
2021/07/24 13:40:27;;;;;;;7.20;3.85;;;;;;;;;;5096055;28;20020;-70
2021/07/24 13:42:53;;;;;;;9.23;3.83;;;;;;;;;;5096093;28;20020;-70
2021/07/24 13:45:19;;;;;;;6.93;3.90;;;;;;;;;;5095649;28;20024;-70
2021/07/24 13:47:45;;;;;;;8.57;4.22;;;;;;;;;;5095870;28;20032;-70
2021/07/24 13:50:12;;;;;;;7.47;4.47;;;;;;;;;;5077743;28;20107;-70
2021/07/24 13:52:38;;;;;;;6.57;3.72;;;;;;;;;;5095450;28;20052;-70
2021/07/24 13:55:05;;;;;;;8.93;5.20;;;;;;;;;;5095795;28;20023;-70
2021/07/24 13:57:31;;;;;;;8.68;4.60;;;;;;;;;;5095760;28;20376;-70
2021/07/24 13:59:58;;;;;;;8.57;4.38;;;;;;;;;;5095389;28;20036;-70
2021/07/24 14:02:24;;;;;;;5.85;3.25;;;;;;;;;;5095868;28;20034;-69
2021/07/24 14:04:50;;;;;;;7.30;4.00;;;;;;;;;;5077209;28;20389;-70
2021/07/24 14:07:17;;;;;;;6.63;4.35;;;;;;;;;;5095354;28;20044;-70
2021/07/24 14:09:44;;;;;;;6.38;4.30;;;;;;;;;;5077253;28;20028;-70
2021/07/24 14:12:10;;;;;;;9.00;4.20;;;;;;;;;;5095092;28;20494;-70
2021/07/24 14:14:36;;;;;;;6.30;3.97;;;;;;;;;;5095548;28;20028;-69
2021/07/24 14:17:02;;;;;;;6.78;4.35;;;;;;;;;;5095567;28;20403;-70
2021/07/24 14:19:28;;;;;;;8.30;4.28;;;;;;;;;;5095172;28;20030;-69
2021/07/24 14:21:54;;;;;;;5.95;4.18;;;;;;;;;;5095478;28;20020;-70
2021/07/24 14:24:21;;;;;;;6.68;3.80;;;;;;;;;;5095326;28;20077;-70
2021/07/24 14:26:47;;;;;;;11.60;4.63;;;;;;;;;;5094777;28;20442;-69
2021/07/24 14:29:13;;;;;;;7.53;4.75;;;;;;;;;;5095143;28;20041;-69
2021/07/24 14:31:41;;;;;;;9.18;4.70;;;;;;;;;;5095194;28;20529;-69
2021/07/24 14:34:08;;;;;;;7.85;4.95;;;;;;;;;;5094694;28;20032;-69
2021/07/24 14:36:34;;;;;;;10.48;4.70;;;;;;;;;;5095019;28;20423;-70
2021/07/24 14:39:00;;;;;;;7.53;4.53;;;;;;;;;;5095154;28;20024;-69
2021/07/24 14:41:27;;;;;;;6.78;4.55;;;;;;;;;;5076357;28;20024;-69
2021/07/24 14:43:53;;;;;;;8.93;5.05;;;;;;;;;;5095404;28;20477;-69
2021/07/24 14:46:20;;;;;;;10.13;5.35;;;;;;;;;;5095042;28;20028;-69
2021/07/24 14:48:46;;;;;;;10.45;4.55;;;;;;;;;;5094332;28;20028;-70
2021/07/24 14:51:19;;;;;;;6.22;4.00;;;;;;;;;;5076569;28;20107;-70
2021/07/24 14:53:45;;;;;;;5.97;3.88;;;;;;;;;;5094685;28;20036;-71
2021/07/24 14:56:15;;;;;;;7.90;4.20;;;;;;;;;;5094177;28;20027;-70
2021/07/24 14:58:41;;;;;;;7.47;3.75;;;;;;;;;;5076427;28;20035;-70
2021/07/24 15:01:10;;;;;;;5.38;3.35;;;;;;;;;;5094165;28;20074;-69
2021/07/24 15:03:36;;;;;;;5.43;3.65;;;;;;;;;;5094570;28;20020;-69
2021/07/24 15:06:09;;;;;;;8.43;3.80;;;;;;;;;;5076354;28;20496;-70
2021/07/24 15:08:36;;;;;;;5.25;3.60;;;;;;;;;;5075563;28;20039;-69
2021/07/24 15:11:06;;;;;;;5.93;3.65;;;;;;;;;;5094386;28;20015;-69
2021/07/24 15:13:33;;;;;;;5.70;3.30;;;;;;;;;;5094625;28;20052;-70
2021/07/24 15:16:00;;;;;;;4.95;2.83;;;;;;;;;;5093754;28;20024;-70
2021/07/24 15:18:27;;;;;;;4.88;2.95;;;;;;;;;;5093952;28;20028;-70
2021/07/24 15:20:53;;;;;;;5.05;3.10;;;;;;;;;;5094193;28;20089;-71
2021/07/24 15:23:19;;;;;;;3.47;2.47;;;;;;;;;;5093965;28;20027;-70
2021/07/24 15:25:46;;;;;;;5.38;3.38;;;;;;;;;;5094359;28;20024;-69
2021/07/24 15:28:12;;;;;;;9.95;3.45;;;;;;;;;;5094048;28;20059;-69
2021/07/24 15:30:39;;;;;;;6.20;3.13;;;;;;;;;;5093672;28;20023;-69
2021/07/24 15:33:05;;;;;;;6.78;3.67;;;;;;;;;;5094055;28;20035;-71
2021/07/24 15:35:31;;;;;;;6.35;3.35;;;;;;;;;;5093966;28;20365;-69
2021/07/24 15:37:57;;;;;;;4.93;3.40;;;;;;;;;;5075383;28;20031;-70
2021/07/24 15:40:24;;;;;;;7.22;3.67;;;;;;;;;;5094082;28;20024;-70
2021/07/24 15:42:50;;;;;;;5.32;3.35;;;;;;;;;;5075737;28;20053;-71
2021/07/24 15:45:17;;;;;;;6.07;3.72;;;;;;;;;;5075333;28;20389;-70
2021/07/24 15:47:43;;;;;;;5.85;3.22;;;;;;;;;;5093734;28;20107;-71
2021/07/24 15:50:09;;;;;;;6.50;3.50;;;;;;;;;;5093538;28;20103;-70
2021/07/24 15:52:36;;;;;;;3.78;3.00;;;;;;;;;;5093765;28;20536;-71
2021/07/24 15:55:03;;;;;;;5.55;2.97;;;;;;;;;;5093699;28;20107;-71
2021/07/24 15:57:29;;;;;;;5.75;2.97;;;;;;;;;;5093243;28;20020;-71
2021/07/24 15:59:55;;;;;;;5.90;3.40;;;;;;;;;;5093583;28;20035;-70
2021/07/24 16:02:22;;;;;;;5.65;3.20;;;;;;;;;;5075343;28;20043;-70
2021/07/24 16:04:48;;;;;;;6.47;3.83;;;;;;;;;;5092927;28;20073;-71
2021/07/24 16:07:14;;;;;;;7.78;3.42;;;;;;;;;;5093206;28;20043;-70
2021/07/24 16:09:40;;;;;;;6.00;3.08;;;;;;;;;;5093494;28;20036;-71
2021/07/24 16:12:07;;;;;;;5.78;3.78;;;;;;;;;;5093035;28;20016;-71
2021/07/24 16:14:35;;;;;;;5.63;3.47;;;;;;;;;;5075332;28;20056;-71
2021/07/24 16:17:01;;;;;;;8.50;3.95;;;;;;;;;;5093724;28;20380;-71
2021/07/24 16:19:28;;;;;;;6.30;4.03;;;;;;;;;;5093125;28;20472;-70
2021/07/24 16:21:54;;;;;;;5.70;3.45;;;;;;;;;;5093421;28;20028;-70
2021/07/24 16:24:20;;;;;;;6.80;3.83;;;;;;;;;;5093403;28;20024;-71
2021/07/24 16:26:46;;;;;;;7.07;3.88;;;;;;;;;;5092848;28;20157;-70
2021/07/24 16:29:13;;;;;;;8.27;4.10;;;;;;;;;;5094881;28;20028;-71
2021/07/24 16:31:43;;;;;;;6.38;3.63;;;;;;;;;;5097392;28;20101;-71
2021/07/24 16:34:09;;;;;;;7.28;4.60;;;;;;;;;;5096931;28;20034;-71
2021/07/24 16:36:35;;;;;;;8.18;3.88;;;;;;;;;;5097363;28;20027;-71
2021/07/24 16:39:01;;;;;;;5.18;3.70;;;;;;;;;;5097271;28;20020;-71